Welcome to our new website - Welkom op onze vernieuwde website - Bienvenue sur notre nouveau site web - Willkommen auf unserer neuen Website
Check our progress frequently. Prüfen Sie unsere Fortschritte regelmäßig. Consultez notre progression fréquemment. Komt u straks nog eens

KNMI Weersverwachting is alleen beschikbaar in de Nederlandse Taal, Ongeacht welke taal u kiest.
KNMI weather forecast is only available in the Dutch language, No matter what language you choose.







Meteo Oudkarspel - De weer weet site voor Langedijk

Blijf op de hoogte van het actuele weer, Keep up to date with the current weather.



Lokaal brandgevaar
CBI


Regionaal natuur brand risico: Meer informatie


Mijn Webcam 1 Meer informatie My webcam


Mijn Webcam 2 Meer informatie My webcam 2


Onweer radar Meer informatie blitzortung!


Regen radar Meer informatie rain snow radar


Bezoek onze andere website:

Template - Davis WeatherLink Version
Vantage Veu

Template - Meteotemplate

Template - HomeWeatherStation

PDøROK Multimedia

Meteo Broek Op Langedijk

Visual FM - Serious Internet RadioVisual FM - Serious Internet Radio

Lief LangedijkLief Langedijk

Dé fietsenmaker van Langedijk en omstrekenAxel Noort dé fietsenmaker

Ijsvereniging Volharding

Meteo Tuitjenhorn

Meteo Delfzijl

Weerstation Noordbergum

Weerstation ParkstadWeerstation Parkstad



Het weer levert geen direct gevaar op.    Er zijn geen waarschuwingen afgegeven.

METAR rapporten vliegvelden

   
EHKD - De Kooy (navy), Netherlands
Afstand tot: N 23 km
Gewijzigd: 04-Mar-2021 10:55
Bewolking  
Bewolking  
   Wind: NNW 13 km/h
Wind: NNW 13 km/h
Temperatuur: 5°C
Voelt als: 2°C
Dauwpunt: 2°C
Vochtigheid: 81%
Barometer: 1022 hPa
Bewolking: Bewolking
Zicht: meer dan 10 km
Bewolking: Licht bewolkt 1200 ft,
Bewolking 2200 ft
EHKD 040955Z AUTO 34007KT 290V020 9999 FEW012 OVC022 05/02 Q1022 WHT TEMPO SCT010 BKN015 OVC020
EHAM - Amsterdam/Schiph, Netherlands
Afstand tot: Z 44 km
Gewijzigd: 04-Mar-2021 10:55
Grotendeels bewolkt  
Grotendeels bewolkt  
   Wind: Noorden 9.3 km/h
Wind: Noorden 9.3 km/h
Temperatuur: 5°C
Voelt als: 3°C
Dauwpunt: 3°C
Vochtigheid: 87%
Barometer: 1021 hPa
Bewolking: Grotendeels bewolkt
Zicht: meer dan 10 km
Bewolking: Licht bewolkt 600 ft,
Gedeeltelijk bewolkt 1000 ft,
Grotendeels bewolkt 1700 ft
EHAM 040955Z 01005KT 340V040 9999 FEW006 SCT010 BKN017 05/03 Q1021 TEMPO BKN012
EHQE - Hoorn-A Sea, Netherlands
Afstand tot: WNW 50 km
Gewijzigd: 04-Mar-2021 10:55
Grotendeels bewolkt  
Grotendeels bewolkt  
   Wind: NW 24.1 km/h
Wind: NW 24.1 km/h
Temperatuur: 5°C
Voelt als: 1°C
Dauwpunt: 1°C
Vochtigheid: 76%
Barometer: 1022 hPa
Bewolking: Grotendeels bewolkt
Zicht: meer dan 10 km
Bewolking: Licht bewolkt 1200 ft,
Gedeeltelijk bewolkt 1400 ft,
Grotendeels bewolkt 1700 ft
EHQE 040955Z AUTO 32013KT 9999 FEW012 SCT014 BKN017 05/01 Q1022
EHVL - Vlieland Island, Netherlands
Afstand tot: N 58 km
Gewijzigd: 04-Mar-2021 10:55
Bewolking  
Bewolking  
   Wind: NNW 18.5 km/h
Wind: NNW 18.5 km/h
Temperatuur: 6°C
Voelt als: 3°C
Dauwpunt: 4°C
Vochtigheid: 87%
Barometer: 1022 hPa
Bewolking: Bewolking
Zicht: meer dan 10 km
Bewolking: Licht bewolkt 2100 ft,
Bewolking 2600 ft
EHVL 040955Z AUTO 34010KT 9999 FEW021 OVC026 06/04 Q1022 BLU
EHLW - Leeuwarden Rnlaf, Netherlands
Afstand tot: NO 85 km
Gewijzigd: 04-Mar-2021 10:55
Bewolking  
Bewolking  
   Wind: NNW 16.7 km/h
Wind: NNW 16.7 km/h
Temperatuur: 5°C
Voelt als: 2°C
Dauwpunt: 4°C
Vochtigheid: 93%
Barometer: 1021 hPa
Bewolking: Bewolking
Zicht: meer dan 10 km
Bewolking: Bewolking 2100 ft
EHLW 040955Z AUTO 33009KT 290V360 9999 OVC021 05/04 Q1021 WHT TEMPO SCT010 BKN017
EHRD - Rotterdam Airpor, Netherlands
Afstand tot: ZZW 88 km
Gewijzigd: 04-Mar-2021 10:55
Nevel, Bewolking  
Nevel, Bewolking  
   Wind: NNO 9.3 km/h
Wind: NNO 9.3 km/h
Temperatuur: 4°C
Voelt als: 2°C
Dauwpunt: 4°C
Vochtigheid: 100%
Barometer: 1022 hPa
Bewolking: Bewolking
Zicht: 1 km
Bewolking: Grotendeels bewolkt 300 ft,
Bewolking 400 ft
EHRD 040955Z AUTO 02005KT 1400 R06/1500D BR BKN003 OVC004 04/04 Q1022 BECMG 4000 BKN005
EHKV - K14-Fa-1c Sea, Netherlands
Afstand tot: NW 100 km
Gewijzigd: 04-Mar-2021 10:55
Grotendeels bewolkt  
Grotendeels bewolkt  
   Wind: Noorden 27.8 km/h
Wind: Noorden 27.8 km/h
Temperatuur: 5°C
Voelt als: 0°C
Dauwpunt: 3°C
Vochtigheid: 87%
Barometer: 1022 hPa
Bewolking: Grotendeels bewolkt
Zicht: meer dan 10 km
Bewolking: Licht bewolkt 1000 ft,
Grotendeels bewolkt 1200 ft,
Grotendeels bewolkt 1400 ft
EHKV 040955Z AUTO 01015KT 9999 FEW010 BKN012 BKN014 05/03 Q1022 REDZ
EHMG - L9-Ff-1 Sea, Netherlands
Afstand tot: N 101 km
Gewijzigd: 04-Mar-2021 10:55
Bewolking  
Bewolking  
   Wind: NNO 31.5 km/h
Wind: NNO 31.5 km/h
Temperatuur: 5°C
Voelt als: 0°C
Dauwpunt: 2°C
Vochtigheid: 81%
Barometer: 1022 hPa
Bewolking: Bewolking
Zicht: meer dan 10 km
Bewolking: Licht bewolkt 1000 ft,
Grotendeels bewolkt 2000 ft,
Bewolking 2500 ft
EHMG 040955Z AUTO 02017KT 9999 FEW010 BKN020 OVC025 05/02 Q1022
EHDL - Deelen Rnlafb, Netherlands
Afstand tot: ZO 102 km
Gewijzigd: 04-Mar-2021 10:55
Nevel, Bewolking  
Nevel, Bewolking  
   Wind: Noorden 11.1 km/h
Wind: Noorden 11.1 km/h
Temperatuur: 3°C
Voelt als: 0°C
Dauwpunt: 2°C
Vochtigheid: 93%
Barometer: 1021 hPa
Bewolking: Bewolking
Zicht: 5 km
Bewolking: Bewolking 500 ft
EHDL 040955Z AUTO 35006KT 320V050 5000 BR OVC005 03/02 Q1021 YLO
EHPG - P11-B Sea, Netherlands
Afstand tot: WZW 106 km
Gewijzigd: 04-Mar-2021 10:55
Grotendeels bewolkt  
Grotendeels bewolkt  
   Wind: NO 20.4 km/h
Wind: NO 20.4 km/h
Temperatuur: 5°C
Voelt als: 1°C
Dauwpunt: 2°C
Vochtigheid: 81%
Barometer: 1022 hPa
Bewolking: Grotendeels bewolkt
Zicht: meer dan 10 km
Bewolking: Licht bewolkt 700 ft,
Gedeeltelijk bewolkt 1000 ft,
Grotendeels bewolkt 1300 ft
EHPG 040955Z AUTO 04011KT 9999 FEW007 SCT010 BKN013 05/02 Q1022
EHMA - Awg-1 Sea, Netherlands
Afstand tot: NO 116 km
Gewijzigd: 04-Mar-2021 10:55
Bewolking  
Bewolking  
   Wind: Noorden 22.2 km/h
Wind: Noorden 22.2 km/h
Temperatuur: 5°C
Voelt als: 1°C
Dauwpunt: 3°C
Vochtigheid: 87%
Barometer: 1021 hPa
Bewolking: Bewolking
Zicht: meer dan 10 km
Bewolking: Gedeeltelijk bewolkt 1700 ft,
Bewolking 2100 ft
EHMA 040955Z AUTO 35012KT 9999 SCT017 OVC021 05/03 Q1021
EHSC - Goeree Le Sea, Netherlands
Afstand tot: ZW 116 km
Gewijzigd: 04-Mar-2021 10:55
Nevel  
Nevel  
   Wind: NNO 16.7 km/h
Wind: NNO 16.7 km/h
Temperatuur: 4°C
Voelt als: 0°C
Dauwpunt: 4°C
Vochtigheid: 100%
Barometer: 1021 hPa
Zicht: 4 km
EHSC 040955Z AUTO 03009KT 3800 BR ///////// 04/04 Q1021 W05/H3
EHJR - K13-A Sea, Netherlands
Afstand tot: WNW 120 km
Gewijzigd: 04-Mar-2021 10:55
  
  
   Wind: Noorden 24.1 km/h
Wind: Noorden 24.1 km/h
Temperatuur: 5°C
Voelt als: 1°C
Dauwpunt: 3°C
Vochtigheid: 87%
Barometer: 1023 hPa
EHJR 040955Z AUTO 36013KT //// // ///////// 05/03 Q1023 RE// W06/H6
EHGG - Groningen/Eelde, Netherlands
Afstand tot: ONO 126 km
Gewijzigd: 04-Mar-2021 10:55
Bewolking  
Bewolking  
   Wind: WNW 11.1 km/h
Wind: WNW 11.1 km/h
Temperatuur: 5°C
Voelt als: 2°C
Dauwpunt: 3°C
Vochtigheid: 87%
Barometer: 1020 hPa
Bewolking: Bewolking
Zicht: meer dan 10 km
Bewolking: Bewolking 1800 ft
EHGG 040955Z AUTO 29006KT 260V330 9999 OVC018 05/03 Q1020 NOSIG
EHGR - Gilze-Rijen Rnla, Netherlands
Afstand tot: Z 128 km
Gewijzigd: 04-Mar-2021 10:55
Nevel, Grotendeels bewolkt  
Nevel, Grotendeels bewolkt  
   Wind: Noorden 9.3 km/h
Wind: Noorden 9.3 km/h
Temperatuur: 4°C
Voelt als: 2°C
Dauwpunt: 4°C
Vochtigheid: 100%
Barometer: 1021 hPa
Bewolking: Grotendeels bewolkt
Zicht: 2 km
Bewolking: Licht bewolkt 200 ft,
Gedeeltelijk bewolkt 300 ft,
Grotendeels bewolkt 400 ft
EHGR 040955Z AUTO 35005KT 290V050 1600 R10/1600N BR FEW002 SCT003 BKN004 04/04 Q1021 YLO BECMG 2000 BR BKN003 OVC005
EHSA - Euro Platform, Netherlands
Afstand tot: ZW 130 km
Gewijzigd: 04-Mar-2021 10:55
  
  
   Wind: Noorden 16.7 km/h
Wind: Noorden 16.7 km/h
Temperatuur: 5°C
Voelt als: 2°C
Dauwpunt: 4°C
Vochtigheid: 93%
Barometer: 1022 hPa
Zicht: meer dan 10 km
EHSA 040955Z AUTO 36009KT 9999 ///////// 05/04 Q1022 W///H4
EHVK - Volkel Rnlafb, Netherlands
Afstand tot: ZZO 135 km
Gewijzigd: 04-Mar-2021 10:55
Nevel, Bewolking  
Nevel, Bewolking  
   Wind: Noorden 9.3 km/h
Wind: Noorden 9.3 km/h
Temperatuur: 4°C
Voelt als: 2°C
Dauwpunt: 3°C
Vochtigheid: 93%
Barometer: 1021 hPa
Bewolking: Bewolking
Zicht: 2 km
Bewolking: Grotendeels bewolkt 300 ft,
Bewolking 400 ft
EHVK 040955Z AUTO 35005KT 300V020 1900 BR BKN003 OVC004 04/03 Q1021 YLO
EHWO - Woensdrecht Rnla, Netherlands
Afstand tot: ZZW 144 km
Gewijzigd: 04-Mar-2021 10:55
Nevel, Bewolking  
Nevel, Bewolking  
   Wind: Noorden 9.3 km/h
Wind: Noorden 9.3 km/h
Temperatuur: 4°C
Voelt als: 2°C
Dauwpunt: 4°C
Vochtigheid: 100%
Barometer: 1021 hPa
Bewolking: Bewolking
Zicht: 1 km
Bewolking: Grotendeels bewolkt 200 ft,
Bewolking 300 ft
EHWO 040955Z AUTO 36005KT 300V060 1200 BR BKN002 OVC003 04/04 Q1021 REDZ AMB
EHEH - Eindhoven Rnlafb, Netherlands
Afstand tot: ZZO 146 km
Gewijzigd: 04-Mar-2021 10:55
Nevel, Bewolking  
Nevel, Bewolking  
   Wind: Noorden 11.1 km/h
Wind: Noorden 11.1 km/h
Temperatuur: 4°C
Voelt als: 1°C
Dauwpunt: 4°C
Vochtigheid: 100%
Barometer: 1021 hPa
Bewolking: Bewolking
Zicht: 1 km
Bewolking: Bewolking 100 ft
EHEH 040955Z AUTO 35006KT 300V030 1100 R03/1300D BR OVC001 04/04 Q1021 RED BECMG 3000 BR BKN003 OVC005 RMK LVP ALFA
EDLV - Niederrhein, Germany
Afstand tot: ZO 154 km
Gewijzigd: 04-Mar-2021 10:50
Wat regen mogelijk, Nevel, Grotendeels bewolkt  
Wat regen mogelijk, Nevel, Grotendeels bewolkt  
   Wind: varieert 5.6 km/h
Wind: varieert 5.6 km/h
Temperatuur: 4°C
Voelt als: 3°C
Dauwpunt: 3°C
Vochtigheid: 93%
Barometer: 1021 hPa
Bewolking: Grotendeels bewolkt
Zicht: 4 km
Bewolking: Grotendeels bewolkt 400 ft
EDLV 040950Z VRB03KT 4000 -RA BR BKN004 04/03 Q1021
 

Script ontwikkeld door  Saratoga-weather.org Aangepast voor de template door  Weerstation Leuven

U vindt ons ook hier:

Vereniging voor Weerkunde en Klimatologie

Het Weer Aktueel

WOW Nederland KNMI

UK Metoffice

European Weather Network

WeatherCloud

Weather Underground

Benelux Weer Netwerk

AWEKAS

WeatherlinkIP

Citizen Weather Observer Program (CWOP)

HAMweather, WeatherForYou, PWS Weather

        

Apparatuur in gebruik:

Weerstation
Davis - Vantage Veu

Weerprogramma
Meteobridge

Weercomputer
Carambola2 - MeteroBridge Pro (black)

Webleverancier
1Eurohosting

Hardwareleverancier 1
Uurwerk- & Meteospecialist Vlasma

Hardwareleverancier 2
Weerhuisje

Davis - Vantage Veu

Meteobridge

Carambola2 - MeteroBridge Pro (black)

1Eurohosting

Uurwerk- & Meteospecialist Vlasma

Weerhuisje


Alles over het weer rondom het weerstation van Meteo Oudkarspel, vind je hier. Dus alles onder 1 dak.

Everything about the weather around the Meteo Oudkarspel weather station can be found here. So everything under one roof..

Dus kom regelmatig terug, So come back regularly.


# #---------------------- version history # 3.20 2015-10-12 release 2.8b version